sensor_id;sensor_type;location;lat;lon;timestamp;P1;durP1;ratioP1;P2;durP2;ratioP2
6695;SDS011;3385;48.928;10.330;2022-07-29T00:00:06;2.40;;;1.90;;
6695;SDS011;3385;48.928;10.330;2022-07-29T00:02:33;2.10;;;1.60;;
6695;SDS011;3385;48.928;10.330;2022-07-29T00:04:59;1.77;;;1.58;;
6695;SDS011;3385;48.928;10.330;2022-07-29T00:07:25;1.65;;;1.55;;
6695;SDS011;3385;48.928;10.330;2022-07-29T00:09:51;1.60;;;1.50;;
6695;SDS011;3385;48.928;10.330;2022-07-29T00:12:18;1.70;;;1.58;;
6695;SDS011;3385;48.928;10.330;2022-07-29T00:14:45;2.30;;;1.50;;
6695;SDS011;3385;48.928;10.330;2022-07-29T00:17:11;1.52;;;1.42;;
6695;SDS011;3385;48.928;10.330;2022-07-29T00:19:37;2.00;;;1.40;;
6695;SDS011;3385;48.928;10.330;2022-07-29T00:22:02;1.67;;;1.35;;
6695;SDS011;3385;48.928;10.330;2022-07-29T00:24:28;1.40;;;1.23;;
6695;SDS011;3385;48.928;10.330;2022-07-29T00:26:54;1.70;;;1.33;;
6695;SDS011;3385;48.928;10.330;2022-07-29T00:29:20;2.75;;;1.08;;
6695;SDS011;3385;48.928;10.330;2022-07-29T00:31:45;1.00;;;1.00;;
6695;SDS011;3385;48.928;10.330;2022-07-29T00:34:11;1.15;;;1.00;;
6695;SDS011;3385;48.928;10.330;2022-07-29T00:36:55;1.00;;;0.90;;
6695;SDS011;3385;48.928;10.330;2022-07-29T00:39:22;0.90;;;0.90;;
6695;SDS011;3385;48.928;10.330;2022-07-29T00:41:48;0.98;;;0.98;;
6695;SDS011;3385;48.928;10.330;2022-07-29T00:44:14;0.90;;;0.85;;
6695;SDS011;3385;48.928;10.330;2022-07-29T00:46:39;1.10;;;1.00;;
6695;SDS011;3385;48.928;10.330;2022-07-29T00:49:05;1.10;;;1.00;;
6695;SDS011;3385;48.928;10.330;2022-07-29T00:51:32;1.00;;;0.90;;
6695;SDS011;3385;48.928;10.330;2022-07-29T00:54:01;1.17;;;0.93;;
6695;SDS011;3385;48.928;10.330;2022-07-29T00:56:29;0.73;;;0.73;;
6695;SDS011;3385;48.928;10.330;2022-07-29T00:58:56;0.90;;;0.90;;
6695;SDS011;3385;48.928;10.330;2022-07-29T01:01:22;1.73;;;1.10;;
6695;SDS011;3385;48.928;10.330;2022-07-29T01:03:48;0.90;;;0.90;;
6695;SDS011;3385;48.928;10.330;2022-07-29T01:06:15;1.05;;;0.95;;
6695;SDS011;3385;48.928;10.330;2022-07-29T01:08:43;1.00;;;0.90;;
6695;SDS011;3385;48.928;10.330;2022-07-29T01:11:10;1.20;;;1.10;;
6695;SDS011;3385;48.928;10.330;2022-07-29T01:13:37;1.10;;;1.00;;
6695;SDS011;3385;48.928;10.330;2022-07-29T01:16:07;1.13;;;0.93;;
6695;SDS011;3385;48.928;10.330;2022-07-29T01:18:42;1.00;;;1.00;;
6695;SDS011;3385;48.928;10.330;2022-07-29T01:27:38;1.30;;;1.20;;
6695;SDS011;3385;48.928;10.330;2022-07-29T01:30:16;0.90;;;0.90;;
6695;SDS011;3385;48.928;10.330;2022-07-29T01:32:42;1.30;;;1.20;;
6695;SDS011;3385;48.928;10.330;2022-07-29T01:43:09;1.30;;;1.20;;
6695;SDS011;3385;48.928;10.330;2022-07-29T01:45:48;1.33;;;1.23;;
6695;SDS011;3385;48.928;10.330;2022-07-29T01:48:23;3.00;;;1.38;;
6695;SDS011;3385;48.928;10.330;2022-07-29T01:51:04;1.30;;;1.20;;
6695;SDS011;3385;48.928;10.330;2022-07-29T01:53:38;1.83;;;1.35;;
6695;SDS011;3385;48.928;10.330;2022-07-29T01:56:11;1.38;;;1.27;;
6695;SDS011;3385;48.928;10.330;2022-07-29T01:58:40;1.75;;;1.30;;
6695;SDS011;3385;48.928;10.330;2022-07-29T02:01:08;1.25;;;1.15;;
6695;SDS011;3385;48.928;10.330;2022-07-29T02:03:36;1.30;;;1.20;;
6695;SDS011;3385;48.928;10.330;2022-07-29T02:06:04;1.45;;;1.35;;
6695;SDS011;3385;48.928;10.330;2022-07-29T02:08:31;1.10;;;1.10;;
6695;SDS011;3385;48.928;10.330;2022-07-29T02:10:59;1.45;;;1.10;;
6695;SDS011;3385;48.928;10.330;2022-07-29T02:13:27;1.10;;;1.10;;
6695;SDS011;3385;48.928;10.330;2022-07-29T02:15:55;1.30;;;1.20;;
6695;SDS011;3385;48.928;10.330;2022-07-29T02:18:22;1.20;;;1.10;;
6695;SDS011;3385;48.928;10.330;2022-07-29T02:20:50;1.35;;;1.20;;
6695;SDS011;3385;48.928;10.330;2022-07-29T02:23:20;1.10;;;1.10;;
6695;SDS011;3385;48.928;10.330;2022-07-29T02:25:54;1.40;;;1.30;;
6695;SDS011;3385;48.928;10.330;2022-07-29T02:28:22;1.17;;;1.15;;
6695;SDS011;3385;48.928;10.330;2022-07-29T02:30:52;1.60;;;1.30;;
6695;SDS011;3385;48.928;10.330;2022-07-29T02:33:20;1.58;;;1.20;;
6695;SDS011;3385;48.928;10.330;2022-07-29T02:35:48;1.30;;;1.20;;
6695;SDS011;3385;48.928;10.330;2022-07-29T02:38:16;1.05;;;1.05;;
6695;SDS011;3385;48.928;10.330;2022-07-29T02:41:01;1.17;;;1.15;;
6695;SDS011;3385;48.928;10.330;2022-07-29T02:43:31;1.20;;;1.10;;
6695;SDS011;3385;48.928;10.330;2022-07-29T02:45:59;2.08;;;1.50;;
6695;SDS011;3385;48.928;10.330;2022-07-29T02:48:32;1.02;;;1.00;;
6695;SDS011;3385;48.928;10.330;2022-07-29T02:51:10;1.48;;;1.20;;
6695;SDS011;3385;48.928;10.330;2022-07-29T02:53:42;1.38;;;1.27;;
6695;SDS011;3385;48.928;10.330;2022-07-29T02:56:13;2.13;;;1.40;;
6695;SDS011;3385;48.928;10.330;2022-07-29T02:58:42;1.30;;;1.20;;
6695;SDS011;3385;48.928;10.330;2022-07-29T03:01:16;1.05;;;1.05;;
6695;SDS011;3385;48.928;10.330;2022-07-29T03:03:48;1.23;;;1.13;;
6695;SDS011;3385;48.928;10.330;2022-07-29T03:06:16;1.20;;;1.10;;
6695;SDS011;3385;48.928;10.330;2022-07-29T03:08:44;1.25;;;1.00;;
6695;SDS011;3385;48.928;10.330;2022-07-29T03:11:10;1.55;;;1.10;;
6695;SDS011;3385;48.928;10.330;2022-07-29T03:13:37;1.30;;;1.20;;
6695;SDS011;3385;48.928;10.330;2022-07-29T03:16:04;1.90;;;1.30;;
6695;SDS011;3385;48.928;10.330;2022-07-29T03:18:31;1.17;;;1.08;;
6695;SDS011;3385;48.928;10.330;2022-07-29T03:20:57;1.25;;;1.13;;
6695;SDS011;3385;48.928;10.330;2022-07-29T03:23:23;1.35;;;1.25;;
6695;SDS011;3385;48.928;10.330;2022-07-29T03:25:51;1.25;;;1.15;;
6695;SDS011;3385;48.928;10.330;2022-07-29T03:28:17;1.00;;;1.00;;
6695;SDS011;3385;48.928;10.330;2022-07-29T03:30:43;1.10;;;1.00;;
6695;SDS011;3385;48.928;10.330;2022-07-29T03:33:09;0.80;;;0.80;;
6695;SDS011;3385;48.928;10.330;2022-07-29T03:35:34;1.10;;;1.00;;
6695;SDS011;3385;48.928;10.330;2022-07-29T03:38:00;1.20;;;1.10;;
6695;SDS011;3385;48.928;10.330;2022-07-29T03:40:28;0.85;;;0.85;;
6695;SDS011;3385;48.928;10.330;2022-07-29T03:42:58;0.90;;;0.90;;
6695;SDS011;3385;48.928;10.330;2022-07-29T03:45:25;0.90;;;0.90;;
6695;SDS011;3385;48.928;10.330;2022-07-29T03:47:57;0.90;;;0.90;;
6695;SDS011;3385;48.928;10.330;2022-07-29T03:50:27;0.80;;;0.80;;
6695;SDS011;3385;48.928;10.330;2022-07-29T03:52:55;0.80;;;0.80;;
6695;SDS011;3385;48.928;10.330;2022-07-29T03:55:22;1.10;;;0.90;;
6695;SDS011;3385;48.928;10.330;2022-07-29T03:57:48;0.60;;;0.60;;
6695;SDS011;3385;48.928;10.330;2022-07-29T04:00:15;1.58;;;0.88;;
6695;SDS011;3385;48.928;10.330;2022-07-29T04:02:41;0.70;;;0.70;;
6695;SDS011;3385;48.928;10.330;2022-07-29T04:05:14;0.80;;;0.80;;
6695;SDS011;3385;48.928;10.330;2022-07-29T04:07:42;0.75;;;0.73;;
6695;SDS011;3385;48.928;10.330;2022-07-29T04:10:09;1.30;;;0.80;;
6695;SDS011;3385;48.928;10.330;2022-07-29T04:12:35;0.70;;;0.70;;
6695;SDS011;3385;48.928;10.330;2022-07-29T04:15:02;0.75;;;0.75;;
6695;SDS011;3385;48.928;10.330;2022-07-29T04:17:29;0.65;;;0.65;;
6695;SDS011;3385;48.928;10.330;2022-07-29T04:19:54;0.60;;;0.60;;
6695;SDS011;3385;48.928;10.330;2022-07-29T04:22:20;0.70;;;0.70;;
6695;SDS011;3385;48.928;10.330;2022-07-29T04:24:46;1.17;;;0.70;;
6695;SDS011;3385;48.928;10.330;2022-07-29T04:27:11;0.55;;;0.55;;
6695;SDS011;3385;48.928;10.330;2022-07-29T04:29:37;0.47;;;0.47;;
6695;SDS011;3385;48.928;10.330;2022-07-29T04:32:03;0.40;;;0.40;;
6695;SDS011;3385;48.928;10.330;2022-07-29T04:34:29;0.50;;;0.50;;
6695;SDS011;3385;48.928;10.330;2022-07-29T04:36:55;1.00;;;0.40;;
6695;SDS011;3385;48.928;10.330;2022-07-29T04:39:21;0.30;;;0.30;;
6695;SDS011;3385;48.928;10.330;2022-07-29T04:41:46;0.70;;;0.45;;
6695;SDS011;3385;48.928;10.330;2022-07-29T04:44:12;0.40;;;0.40;;
6695;SDS011;3385;48.928;10.330;2022-07-29T04:46:38;0.22;;;0.22;;
6695;SDS011;3385;48.928;10.330;2022-07-29T04:49:04;0.40;;;0.40;;
6695;SDS011;3385;48.928;10.330;2022-07-29T04:51:30;0.40;;;0.40;;
6695;SDS011;3385;48.928;10.330;2022-07-29T04:53:56;0.50;;;0.40;;
6695;SDS011;3385;48.928;10.330;2022-07-29T04:56:22;0.52;;;0.50;;
6695;SDS011;3385;48.928;10.330;2022-07-29T04:58:48;1.10;;;0.60;;
6695;SDS011;3385;48.928;10.330;2022-07-29T05:01:14;0.73;;;0.50;;
6695;SDS011;3385;48.928;10.330;2022-07-29T05:03:40;1.15;;;0.57;;
6695;SDS011;3385;48.928;10.330;2022-07-29T05:06:06;0.50;;;0.50;;
6695;SDS011;3385;48.928;10.330;2022-07-29T05:08:32;0.88;;;0.60;;
6695;SDS011;3385;48.928;10.330;2022-07-29T05:10:57;0.30;;;0.30;;
6695;SDS011;3385;48.928;10.330;2022-07-29T05:13:23;0.40;;;0.40;;
6695;SDS011;3385;48.928;10.330;2022-07-29T05:15:49;0.40;;;0.40;;
6695;SDS011;3385;48.928;10.330;2022-07-29T05:18:15;0.40;;;0.40;;
6695;SDS011;3385;48.928;10.330;2022-07-29T05:20:40;0.30;;;0.30;;
6695;SDS011;3385;48.928;10.330;2022-07-29T05:23:06;0.20;;;0.20;;
6695;SDS011;3385;48.928;10.330;2022-07-29T05:25:32;0.30;;;0.30;;
6695;SDS011;3385;48.928;10.330;2022-07-29T05:27:58;0.30;;;0.30;;
6695;SDS011;3385;48.928;10.330;2022-07-29T05:30:24;0.30;;;0.30;;
6695;SDS011;3385;48.928;10.330;2022-07-29T05:32:49;0.30;;;0.30;;
6695;SDS011;3385;48.928;10.330;2022-07-29T05:35:16;0.50;;;0.30;;
6695;SDS011;3385;48.928;10.330;2022-07-29T05:37:42;0.20;;;0.20;;
6695;SDS011;3385;48.928;10.330;2022-07-29T05:40:08;0.25;;;0.20;;
6695;SDS011;3385;48.928;10.330;2022-07-29T05:42:34;0.20;;;0.20;;
6695;SDS011;3385;48.928;10.330;2022-07-29T05:45:00;0.28;;;0.28;;
6695;SDS011;3385;48.928;10.330;2022-07-29T05:47:26;0.30;;;0.30;;
6695;SDS011;3385;48.928;10.330;2022-07-29T05:49:52;0.73;;;0.50;;
6695;SDS011;3385;48.928;10.330;2022-07-29T05:52:19;0.40;;;0.40;;
6695;SDS011;3385;48.928;10.330;2022-07-29T05:54:46;0.40;;;0.40;;
6695;SDS011;3385;48.928;10.330;2022-07-29T05:57:19;0.60;;;0.60;;
6695;SDS011;3385;48.928;10.330;2022-07-29T05:59:46;0.70;;;0.70;;
6695;SDS011;3385;48.928;10.330;2022-07-29T06:02:12;0.82;;;0.80;;
6695;SDS011;3385;48.928;10.330;2022-07-29T06:04:37;0.75;;;0.70;;
6695;SDS011;3385;48.928;10.330;2022-07-29T06:07:04;0.90;;;0.80;;
6695;SDS011;3385;48.928;10.330;2022-07-29T06:09:30;0.90;;;0.90;;
6695;SDS011;3385;48.928;10.330;2022-07-29T06:11:56;1.05;;;1.00;;
6695;SDS011;3385;48.928;10.330;2022-07-29T06:14:22;1.13;;;1.10;;
6695;SDS011;3385;48.928;10.330;2022-07-29T06:16:49;1.08;;;1.05;;
6695;SDS011;3385;48.928;10.330;2022-07-29T06:19:15;0.90;;;0.88;;
6695;SDS011;3385;48.928;10.330;2022-07-29T06:21:41;1.55;;;0.98;;
6695;SDS011;3385;48.928;10.330;2022-07-29T06:24:08;2.25;;;1.00;;
6695;SDS011;3385;48.928;10.330;2022-07-29T06:26:35;0.88;;;0.88;;
6695;SDS011;3385;48.928;10.330;2022-07-29T06:29:01;1.00;;;0.90;;
6695;SDS011;3385;48.928;10.330;2022-07-29T06:31:27;1.33;;;0.90;;
6695;SDS011;3385;48.928;10.330;2022-07-29T06:33:52;0.95;;;0.90;;
6695;SDS011;3385;48.928;10.330;2022-07-29T06:36:18;1.00;;;0.90;;
6695;SDS011;3385;48.928;10.330;2022-07-29T06:38:44;1.30;;;1.20;;
6695;SDS011;3385;48.928;10.330;2022-07-29T06:41:09;1.00;;;1.00;;
6695;SDS011;3385;48.928;10.330;2022-07-29T06:43:38;1.77;;;1.10;;
6695;SDS011;3385;48.928;10.330;2022-07-29T06:46:15;1.75;;;1.30;;
6695;SDS011;3385;48.928;10.330;2022-07-29T06:48:45;0.90;;;0.90;;
6695;SDS011;3385;48.928;10.330;2022-07-29T06:51:12;1.52;;;0.90;;
6695;SDS011;3385;48.928;10.330;2022-07-29T06:53:38;2.78;;;1.48;;
6695;SDS011;3385;48.928;10.330;2022-07-29T06:56:05;0.90;;;0.90;;
6695;SDS011;3385;48.928;10.330;2022-07-29T06:58:33;0.93;;;0.93;;
6695;SDS011;3385;48.928;10.330;2022-07-29T07:01:03;1.67;;;1.00;;
6695;SDS011;3385;48.928;10.330;2022-07-29T07:03:30;0.80;;;0.80;;
6695;SDS011;3385;48.928;10.330;2022-07-29T07:05:57;1.80;;;1.00;;
6695;SDS011;3385;48.928;10.330;2022-07-29T07:08:23;0.88;;;0.85;;
6695;SDS011;3385;48.928;10.330;2022-07-29T07:10:49;1.05;;;0.98;;
6695;SDS011;3385;48.928;10.330;2022-07-29T07:13:15;0.90;;;0.90;;
6695;SDS011;3385;48.928;10.330;2022-07-29T07:15:42;1.20;;;1.10;;
6695;SDS011;3385;48.928;10.330;2022-07-29T07:18:08;1.08;;;1.00;;
6695;SDS011;3385;48.928;10.330;2022-07-29T07:20:35;1.95;;;1.83;;
6695;SDS011;3385;48.928;10.330;2022-07-29T07:23:01;1.15;;;1.05;;
6695;SDS011;3385;48.928;10.330;2022-07-29T07:25:28;1.20;;;1.00;;
6695;SDS011;3385;48.928;10.330;2022-07-29T07:27:54;1.10;;;1.10;;
6695;SDS011;3385;48.928;10.330;2022-07-29T07:30:20;1.27;;;1.10;;
6695;SDS011;3385;48.928;10.330;2022-07-29T07:32:46;1.52;;;1.27;;
6695;SDS011;3385;48.928;10.330;2022-07-29T07:35:12;3.00;;;1.40;;
6695;SDS011;3385;48.928;10.330;2022-07-29T07:37:38;1.65;;;1.25;;
6695;SDS011;3385;48.928;10.330;2022-07-29T07:40:08;2.35;;;1.50;;
6695;SDS011;3385;48.928;10.330;2022-07-29T07:42:36;2.13;;;1.50;;
6695;SDS011;3385;48.928;10.330;2022-07-29T07:45:03;1.98;;;1.35;;
6695;SDS011;3385;48.928;10.330;2022-07-29T07:47:30;1.40;;;1.30;;
6695;SDS011;3385;48.928;10.330;2022-07-29T07:49:57;1.50;;;1.40;;
6695;SDS011;3385;48.928;10.330;2022-07-29T07:52:22;1.40;;;1.30;;
6695;SDS011;3385;48.928;10.330;2022-07-29T07:54:48;2.35;;;1.30;;
6695;SDS011;3385;48.928;10.330;2022-07-29T07:57:14;2.13;;;1.55;;
6695;SDS011;3385;48.928;10.330;2022-07-29T07:59:40;1.48;;;1.20;;
6695;SDS011;3385;48.928;10.330;2022-07-29T08:02:06;1.52;;;1.42;;
6695;SDS011;3385;48.928;10.330;2022-07-29T08:04:34;2.65;;;1.85;;
6695;SDS011;3385;48.928;10.330;2022-07-29T08:07:00;1.50;;;1.40;;
6695;SDS011;3385;48.928;10.330;2022-07-29T08:09:27;1.95;;;1.73;;
6695;SDS011;3385;48.928;10.330;2022-07-29T08:11:53;1.52;;;1.42;;
6695;SDS011;3385;48.928;10.330;2022-07-29T08:14:19;2.63;;;1.45;;
6695;SDS011;3385;48.928;10.330;2022-07-29T08:16:45;2.83;;;1.90;;
6695;SDS011;3385;48.928;10.330;2022-07-29T08:19:11;1.85;;;1.60;;
6695;SDS011;3385;48.928;10.330;2022-07-29T08:21:38;1.70;;;1.60;;
6695;SDS011;3385;48.928;10.330;2022-07-29T08:24:04;3.85;;;1.83;;
6695;SDS011;3385;48.928;10.330;2022-07-29T08:26:49;1.67;;;1.58;;
6695;SDS011;3385;48.928;10.330;2022-07-29T08:29:15;1.83;;;1.73;;
6695;SDS011;3385;48.928;10.330;2022-07-29T08:31:41;2.28;;;1.90;;
6695;SDS011;3385;48.928;10.330;2022-07-29T08:34:07;2.90;;;1.80;;
6695;SDS011;3385;48.928;10.330;2022-07-29T08:36:33;3.28;;;1.77;;
6695;SDS011;3385;48.928;10.330;2022-07-29T08:38:59;2.40;;;1.90;;
6695;SDS011;3385;48.928;10.330;2022-07-29T08:41:25;1.77;;;1.67;;
6695;SDS011;3385;48.928;10.330;2022-07-29T08:43:51;3.17;;;1.98;;
6695;SDS011;3385;48.928;10.330;2022-07-29T08:46:17;5.60;;;2.40;;
6695;SDS011;3385;48.928;10.330;2022-07-29T08:48:44;2.58;;;2.20;;
6695;SDS011;3385;48.928;10.330;2022-07-29T08:51:14;4.85;;;1.98;;
6695;SDS011;3385;48.928;10.330;2022-07-29T08:53:42;6.40;;;2.10;;
6695;SDS011;3385;48.928;10.330;2022-07-29T08:56:12;7.65;;;2.65;;
6695;SDS011;3385;48.928;10.330;2022-07-29T08:58:39;3.67;;;2.20;;
6695;SDS011;3385;48.928;10.330;2022-07-29T09:01:06;5.70;;;2.50;;
6695;SDS011;3385;48.928;10.330;2022-07-29T09:03:33;2.45;;;2.10;;
6695;SDS011;3385;48.928;10.330;2022-07-29T09:06:01;2.38;;;2.20;;
6695;SDS011;3385;48.928;10.330;2022-07-29T09:08:28;7.20;;;2.35;;
6695;SDS011;3385;48.928;10.330;2022-07-29T09:10:55;3.85;;;2.53;;
6695;SDS011;3385;48.928;10.330;2022-07-29T09:13:22;5.55;;;2.60;;
6695;SDS011;3385;48.928;10.330;2022-07-29T09:15:48;4.97;;;2.03;;
6695;SDS011;3385;48.928;10.330;2022-07-29T09:20:57;4.28;;;2.60;;
6695;SDS011;3385;48.928;10.330;2022-07-29T09:23:56;2.63;;;2.40;;
6695;SDS011;3385;48.928;10.330;2022-07-29T09:26:40;4.65;;;2.83;;
6695;SDS011;3385;48.928;10.330;2022-07-29T09:29:10;2.38;;;2.17;;
6695;SDS011;3385;48.928;10.330;2022-07-29T09:31:40;4.65;;;2.67;;
6695;SDS011;3385;48.928;10.330;2022-07-29T09:34:07;5.97;;;3.17;;
6695;SDS011;3385;48.928;10.330;2022-07-29T09:39:12;2.90;;;2.60;;
6695;SDS011;3385;48.928;10.330;2022-07-29T09:44:12;4.90;;;2.70;;
6695;SDS011;3385;48.928;10.330;2022-07-29T09:46:39;3.45;;;2.97;;
6695;SDS011;3385;48.928;10.330;2022-07-29T09:49:16;6.70;;;2.80;;
6695;SDS011;3385;48.928;10.330;2022-07-29T09:51:42;5.50;;;2.60;;
6695;SDS011;3385;48.928;10.330;2022-07-29T09:54:26;4.47;;;2.70;;
6695;SDS011;3385;48.928;10.330;2022-07-29T09:56:53;4.10;;;2.60;;
6695;SDS011;3385;48.928;10.330;2022-07-29T09:59:20;2.85;;;2.17;;
6695;SDS011;3385;48.928;10.330;2022-07-29T10:01:49;2.58;;;2.38;;
6695;SDS011;3385;48.928;10.330;2022-07-29T10:04:15;3.17;;;2.40;;
6695;SDS011;3385;48.928;10.330;2022-07-29T10:06:57;2.78;;;2.55;;
6695;SDS011;3385;48.928;10.330;2022-07-29T10:09:24;3.85;;;3.05;;
6695;SDS011;3385;48.928;10.330;2022-07-29T10:12:07;4.18;;;2.80;;
6695;SDS011;3385;48.928;10.330;2022-07-29T10:14:34;4.53;;;2.72;;
6695;SDS011;3385;48.928;10.330;2022-07-29T10:17:01;6.75;;;3.58;;
6695;SDS011;3385;48.928;10.330;2022-07-29T10:19:28;5.65;;;3.47;;
6695;SDS011;3385;48.928;10.330;2022-07-29T10:21:58;3.15;;;2.85;;
6695;SDS011;3385;48.928;10.330;2022-07-29T10:24:29;4.22;;;3.05;;
6695;SDS011;3385;48.928;10.330;2022-07-29T10:26:57;5.68;;;3.05;;
6695;SDS011;3385;48.928;10.330;2022-07-29T10:29:24;3.30;;;2.65;;
6695;SDS011;3385;48.928;10.330;2022-07-29T10:40:51;6.70;;;2.60;;
6695;SDS011;3385;48.928;10.330;2022-07-29T10:43:40;3.90;;;3.30;;
6695;SDS011;3385;48.928;10.330;2022-07-29T10:46:09;3.22;;;2.80;;
6695;SDS011;3385;48.928;10.330;2022-07-29T10:54:17;3.92;;;2.80;;
6695;SDS011;3385;48.928;10.330;2022-07-29T10:56:44;4.18;;;2.53;;
6695;SDS011;3385;48.928;10.330;2022-07-29T11:01:48;7.68;;;2.75;;
6695;SDS011;3385;48.928;10.330;2022-07-29T11:07:09;4.43;;;3.00;;
6695;SDS011;3385;48.928;10.330;2022-07-29T11:09:36;8.90;;;3.13;;
6695;SDS011;3385;48.928;10.330;2022-07-29T11:12:02;5.07;;;3.00;;
6695;SDS011;3385;48.928;10.330;2022-07-29T11:17:26;5.78;;;3.40;;
6695;SDS011;3385;48.928;10.330;2022-07-29T11:20:09;4.97;;;3.88;;
6695;SDS011;3385;48.928;10.330;2022-07-29T11:25:30;3.70;;;3.03;;
6695;SDS011;3385;48.928;10.330;2022-07-29T11:28:09;4.65;;;3.15;;
6695;SDS011;3385;48.928;10.330;2022-07-29T11:33:30;8.05;;;3.22;;
6695;SDS011;3385;48.928;10.330;2022-07-29T11:36:12;4.70;;;3.33;;
6695;SDS011;3385;48.928;10.330;2022-07-29T11:38:39;4.95;;;3.22;;
6695;SDS011;3385;48.928;10.330;2022-07-29T11:43:51;6.50;;;3.08;;
6695;SDS011;3385;48.928;10.330;2022-07-29T11:46:41;5.55;;;2.75;;
6695;SDS011;3385;48.928;10.330;2022-07-29T11:49:26;3.90;;;3.20;;
6695;SDS011;3385;48.928;10.330;2022-07-29T11:51:56;5.95;;;3.00;;
6695;SDS011;3385;48.928;10.330;2022-07-29T11:54:26;6.00;;;3.30;;
6695;SDS011;3385;48.928;10.330;2022-07-29T11:56:59;5.32;;;3.00;;
6695;SDS011;3385;48.928;10.330;2022-07-29T11:59:25;4.55;;;3.38;;
6695;SDS011;3385;48.928;10.330;2022-07-29T12:01:55;24.27;;;4.07;;
6695;SDS011;3385;48.928;10.330;2022-07-29T12:04:22;5.25;;;3.05;;
6695;SDS011;3385;48.928;10.330;2022-07-29T12:06:49;3.92;;;3.20;;
6695;SDS011;3385;48.928;10.330;2022-07-29T12:09:16;4.40;;;3.25;;
6695;SDS011;3385;48.928;10.330;2022-07-29T12:11:42;5.10;;;2.83;;
6695;SDS011;3385;48.928;10.330;2022-07-29T12:14:08;5.65;;;3.38;;
6695;SDS011;3385;48.928;10.330;2022-07-29T12:16:37;3.90;;;3.45;;
6695;SDS011;3385;48.928;10.330;2022-07-29T12:19:03;5.75;;;3.70;;
6695;SDS011;3385;48.928;10.330;2022-07-29T12:24:10;6.13;;;3.20;;
6695;SDS011;3385;48.928;10.330;2022-07-29T12:26:36;3.13;;;2.72;;
6695;SDS011;3385;48.928;10.330;2022-07-29T12:29:16;7.10;;;2.90;;
6695;SDS011;3385;48.928;10.330;2022-07-29T12:31:43;6.35;;;2.72;;
6695;SDS011;3385;48.928;10.330;2022-07-29T12:34:13;3.75;;;3.05;;
6695;SDS011;3385;48.928;10.330;2022-07-29T12:36:41;6.28;;;3.20;;
6695;SDS011;3385;48.928;10.330;2022-07-29T12:39:08;4.20;;;2.95;;
6695;SDS011;3385;48.928;10.330;2022-07-29T12:41:34;4.05;;;3.53;;
6695;SDS011;3385;48.928;10.330;2022-07-29T12:44:00;6.88;;;2.70;;
6695;SDS011;3385;48.928;10.330;2022-07-29T12:46:26;5.00;;;2.55;;
6695;SDS011;3385;48.928;10.330;2022-07-29T12:48:52;2.80;;;2.33;;
6695;SDS011;3385;48.928;10.330;2022-07-29T12:51:53;2.97;;;2.58;;
6695;SDS011;3385;48.928;10.330;2022-07-29T12:54:12;3.78;;;2.42;;
6695;SDS011;3385;48.928;10.330;2022-07-29T12:56:39;3.15;;;2.50;;
6695;SDS011;3385;48.928;10.330;2022-07-29T12:59:14;5.07;;;2.53;;
6695;SDS011;3385;48.928;10.330;2022-07-29T13:01:45;5.85;;;2.10;;
6695;SDS011;3385;48.928;10.330;2022-07-29T13:04:30;2.05;;;1.90;;
6695;SDS011;3385;48.928;10.330;2022-07-29T13:06:58;2.95;;;1.98;;
6695;SDS011;3385;48.928;10.330;2022-07-29T13:12:10;5.88;;;2.00;;
6695;SDS011;3385;48.928;10.330;2022-07-29T13:14:38;3.65;;;2.08;;
6695;SDS011;3385;48.928;10.330;2022-07-29T13:19:45;27.52;;;3.30;;
6695;SDS011;3385;48.928;10.330;2022-07-29T13:22:16;3.05;;;1.95;;
6695;SDS011;3385;48.928;10.330;2022-07-29T13:24:51;1.90;;;1.52;;
6695;SDS011;3385;48.928;10.330;2022-07-29T13:27:18;2.40;;;1.52;;
6695;SDS011;3385;48.928;10.330;2022-07-29T13:29:46;4.13;;;1.73;;
6695;SDS011;3385;48.928;10.330;2022-07-29T13:32:12;2.92;;;2.30;;
6695;SDS011;3385;48.928;10.330;2022-07-29T13:34:38;2.05;;;1.73;;
6695;SDS011;3385;48.928;10.330;2022-07-29T13:37:05;2.85;;;1.80;;
6695;SDS011;3385;48.928;10.330;2022-07-29T13:39:30;2.00;;;1.80;;
6695;SDS011;3385;48.928;10.330;2022-07-29T13:41:56;4.85;;;1.80;;
6695;SDS011;3385;48.928;10.330;2022-07-29T13:44:22;2.33;;;2.13;;
6695;SDS011;3385;48.928;10.330;2022-07-29T13:46:48;2.58;;;1.70;;
6695;SDS011;3385;48.928;10.330;2022-07-29T13:49:14;3.20;;;2.05;;
6695;SDS011;3385;48.928;10.330;2022-07-29T13:51:39;4.50;;;2.10;;
6695;SDS011;3385;48.928;10.330;2022-07-29T13:54:05;4.68;;;2.33;;
6695;SDS011;3385;48.928;10.330;2022-07-29T13:56:31;2.72;;;2.33;;
6695;SDS011;3385;48.928;10.330;2022-07-29T13:58:57;4.53;;;2.30;;
6695;SDS011;3385;48.928;10.330;2022-07-29T14:01:23;2.20;;;1.73;;
6695;SDS011;3385;48.928;10.330;2022-07-29T14:03:49;5.30;;;2.20;;
6695;SDS011;3385;48.928;10.330;2022-07-29T14:06:15;3.85;;;2.20;;
6695;SDS011;3385;48.928;10.330;2022-07-29T14:08:40;2.60;;;2.30;;
6695;SDS011;3385;48.928;10.330;2022-07-29T14:11:06;2.88;;;2.42;;
6695;SDS011;3385;48.928;10.330;2022-07-29T14:13:32;4.97;;;2.30;;
6695;SDS011;3385;48.928;10.330;2022-07-29T14:15:58;4.82;;;2.33;;
6695;SDS011;3385;48.928;10.330;2022-07-29T14:18:24;2.95;;;2.25;;
6695;SDS011;3385;48.928;10.330;2022-07-29T14:20:50;4.40;;;2.70;;
6695;SDS011;3385;48.928;10.330;2022-07-29T14:23:16;4.30;;;2.83;;
6695;SDS011;3385;48.928;10.330;2022-07-29T14:25:42;4.88;;;2.63;;
6695;SDS011;3385;48.928;10.330;2022-07-29T14:28:08;6.88;;;2.42;;
6695;SDS011;3385;48.928;10.330;2022-07-29T14:30:33;7.15;;;2.55;;
6695;SDS011;3385;48.928;10.330;2022-07-29T14:32:59;6.47;;;2.90;;
6695;SDS011;3385;48.928;10.330;2022-07-29T14:35:25;3.22;;;2.63;;
6695;SDS011;3385;48.928;10.330;2022-07-29T14:37:51;5.88;;;2.55;;
6695;SDS011;3385;48.928;10.330;2022-07-29T14:40:17;5.35;;;2.50;;
6695;SDS011;3385;48.928;10.330;2022-07-29T14:42:42;4.55;;;2.40;;
6695;SDS011;3385;48.928;10.330;2022-07-29T14:45:08;3.75;;;2.38;;
6695;SDS011;3385;48.928;10.330;2022-07-29T14:47:35;3.20;;;2.90;;
6695;SDS011;3385;48.928;10.330;2022-07-29T14:50:02;5.22;;;2.90;;
6695;SDS011;3385;48.928;10.330;2022-07-29T14:52:28;7.13;;;3.40;;
6695;SDS011;3385;48.928;10.330;2022-07-29T14:54:54;3.38;;;3.00;;
6695;SDS011;3385;48.928;10.330;2022-07-29T14:57:20;5.18;;;3.00;;
6695;SDS011;3385;48.928;10.330;2022-07-29T14:59:46;4.55;;;3.35;;
6695;SDS011;3385;48.928;10.330;2022-07-29T15:02:12;4.95;;;3.75;;
6695;SDS011;3385;48.928;10.330;2022-07-29T15:04:37;6.68;;;4.03;;
6695;SDS011;3385;48.928;10.330;2022-07-29T15:07:03;5.07;;;3.58;;
6695;SDS011;3385;48.928;10.330;2022-07-29T15:09:29;5.35;;;3.50;;
6695;SDS011;3385;48.928;10.330;2022-07-29T15:11:54;6.88;;;4.03;;
6695;SDS011;3385;48.928;10.330;2022-07-29T15:14:20;5.28;;;3.22;;
6695;SDS011;3385;48.928;10.330;2022-07-29T15:16:46;4.90;;;3.65;;
6695;SDS011;3385;48.928;10.330;2022-07-29T15:19:12;5.45;;;3.90;;
6695;SDS011;3385;48.928;10.330;2022-07-29T15:21:38;5.82;;;3.40;;
6695;SDS011;3385;48.928;10.330;2022-07-29T15:24:03;10.07;;;3.60;;
6695;SDS011;3385;48.928;10.330;2022-07-29T15:26:31;3.28;;;2.92;;
6695;SDS011;3385;48.928;10.330;2022-07-29T15:28:57;5.20;;;3.08;;
6695;SDS011;3385;48.928;10.330;2022-07-29T15:31:24;7.60;;;3.22;;
6695;SDS011;3385;48.928;10.330;2022-07-29T15:33:50;3.53;;;2.67;;
6695;SDS011;3385;48.928;10.330;2022-07-29T15:36:15;2.90;;;2.70;;
6695;SDS011;3385;48.928;10.330;2022-07-29T15:38:41;5.47;;;3.08;;
6695;SDS011;3385;48.928;10.330;2022-07-29T15:41:09;5.13;;;2.80;;
6695;SDS011;3385;48.928;10.330;2022-07-29T15:43:38;6.43;;;2.83;;
6695;SDS011;3385;48.928;10.330;2022-07-29T15:46:12;2.88;;;2.67;;
6695;SDS011;3385;48.928;10.330;2022-07-29T15:49:01;4.82;;;2.83;;
6695;SDS011;3385;48.928;10.330;2022-07-29T15:51:28;3.85;;;2.38;;
6695;SDS011;3385;48.928;10.330;2022-07-29T15:53:54;4.43;;;2.63;;
6695;SDS011;3385;48.928;10.330;2022-07-29T15:56:20;4.53;;;2.30;;
6695;SDS011;3385;48.928;10.330;2022-07-29T15:58:47;5.43;;;2.50;;
6695;SDS011;3385;48.928;10.330;2022-07-29T16:01:13;3.63;;;2.65;;
6695;SDS011;3385;48.928;10.330;2022-07-29T16:03:39;4.65;;;2.40;;
6695;SDS011;3385;48.928;10.330;2022-07-29T16:06:05;3.75;;;2.67;;